createdAt,value
2023-04-06T00:00:55.765Z,99827.64
2023-04-06T00:03:57.391Z,99829.11
2023-04-06T00:06:59.182Z,99831.96
2023-04-06T00:10:00.842Z,99831.77
2023-04-06T00:13:02.500Z,99829.39
2023-04-06T00:16:04.441Z,99826.33
2023-04-06T00:19:06.128Z,99822.43
2023-04-06T00:22:08.100Z,99818.37
2023-04-06T00:25:09.899Z,99819.20
2023-04-06T00:28:11.613Z,99816.31
2023-04-06T00:31:17.671Z,99815.76
2023-04-06T00:34:19.355Z,99809.78
2023-04-06T00:37:20.979Z,99807.69
2023-04-06T00:40:22.642Z,99807.95
2023-04-06T00:43:24.638Z,99801.63
2023-04-06T00:46:26.377Z,99797.69
2023-04-06T00:49:31.087Z,99797.16
2023-04-06T00:52:32.811Z,99793.94
2023-04-06T00:55:34.410Z,99793.77
2023-04-06T00:58:36.400Z,99793.38
2023-04-06T01:01:38.043Z,99796.58
2023-04-06T01:04:39.670Z,99796.17
2023-04-06T01:07:41.362Z,99798.23
2023-04-06T01:10:42.918Z,99790.52
2023-04-06T01:13:44.434Z,99786.55
2023-04-06T01:16:46.067Z,99787.33
2023-04-06T01:19:47.656Z,99786.75
2023-04-06T01:22:49.243Z,99782.80
2023-04-06T01:25:50.908Z,99780.57
2023-04-06T01:28:52.574Z,99778.70
2023-04-06T01:31:54.182Z,99775.67
2023-04-06T01:34:55.870Z,99778.41
2023-04-06T01:37:57.593Z,99776.53
2023-04-06T01:40:59.114Z,99775.50
2023-04-06T01:44:00.885Z,99777.83
2023-04-06T01:47:02.483Z,99775.57
2023-04-06T01:50:04.480Z,99773.84
2023-04-06T01:53:06.080Z,99774.68
2023-04-06T01:56:07.785Z,99777.86
2023-04-06T01:59:09.563Z,99769.21
2023-04-06T02:02:11.617Z,99770.02
2023-04-06T02:05:13.254Z,99770.50
2023-04-06T02:08:14.868Z,99772.64
2023-04-06T02:11:16.528Z,99767.18
2023-04-06T02:14:18.121Z,99769.51
2023-04-06T02:17:19.743Z,99768.11
2023-04-06T02:20:21.440Z,99764.69
2023-04-06T02:23:23.027Z,99768.01
2023-04-06T02:26:24.615Z,99767.77
2023-04-06T02:29:26.215Z,99763.65
2023-04-06T02:32:27.786Z,99766.13
2023-04-06T02:35:31.278Z,99767.60
2023-04-06T02:38:32.907Z,99764.86
2023-04-06T02:41:34.493Z,99766.83
2023-04-06T02:44:36.008Z,99768.46
2023-04-06T02:47:37.574Z,99766.86
2023-04-06T02:50:39.120Z,99764.76
2023-04-06T02:53:41.476Z,99761.70
2023-04-06T02:56:43.069Z,99760.52
2023-04-06T02:59:44.737Z,99765.26
2023-04-06T03:02:46.563Z,99761.40
2023-04-06T03:05:48.210Z,99759.86
2023-04-06T03:08:49.912Z,99761.71
2023-04-06T03:11:51.570Z,99760.37
2023-04-06T03:14:53.109Z,99761.91
2023-04-06T03:17:54.707Z,99767.35
2023-04-06T03:20:56.532Z,99762.98
2023-04-06T03:23:58.140Z,99761.33
2023-04-06T03:26:59.711Z,99763.38
2023-04-06T03:30:01.326Z,99766.48
2023-04-06T03:33:03.060Z,99763.98
2023-04-06T03:36:05.021Z,99766.95
2023-04-06T03:39:07.048Z,99769.52
2023-04-06T03:42:08.947Z,99766.71
2023-04-06T03:45:10.794Z,99759.52
2023-04-06T03:48:12.307Z,99761.98
2023-04-06T03:51:13.833Z,99763.32
2023-04-06T03:54:15.366Z,99757.54
2023-04-06T03:57:16.894Z,99758.18
2023-04-06T04:00:18.559Z,99755.11
2023-04-06T04:03:20.291Z,99759.48
2023-04-06T04:06:21.926Z,99762.71
2023-04-06T04:09:23.592Z,99760.37
2023-04-06T04:12:25.127Z,99761.70
2023-04-06T04:15:26.680Z,99765.20
2023-04-06T04:18:28.268Z,99761.66
2023-04-06T04:21:31.015Z,99758.66
2023-04-06T04:24:32.640Z,99758.33
2023-04-06T04:27:34.139Z,99754.05
2023-04-06T04:30:35.707Z,99752.66
2023-04-06T04:33:37.378Z,99753.02
2023-04-06T04:36:38.917Z,99753.73
2023-04-06T04:39:40.779Z,99751.42
2023-04-06T04:42:42.374Z,99753.31
2023-04-06T04:45:43.901Z,99752.31
2023-04-06T04:48:45.588Z,99750.37
2023-04-06T04:51:47.171Z,99750.55
2023-04-06T04:54:48.742Z,99749.77
2023-04-06T04:57:50.282Z,99751.00
2023-04-06T05:00:51.874Z,99749.54
2023-04-06T05:03:53.695Z,99749.12
2023-04-06T05:07:07.866Z,99749.56
2023-04-06T05:10:09.900Z,99745.23
2023-04-06T05:13:11.628Z,99744.64
2023-04-06T05:16:13.439Z,99745.25
2023-04-06T05:19:15.152Z,99743.48
2023-04-06T05:22:16.656Z,99740.18
2023-04-06T05:25:18.278Z,99740.10
2023-04-06T05:28:20.015Z,99739.33
2023-04-06T05:31:21.760Z,99739.40
2023-04-06T05:34:23.239Z,99741.69
2023-04-06T05:37:24.832Z,99736.17
2023-04-06T05:40:26.427Z,99737.76
2023-04-06T05:43:27.976Z,99736.96
2023-04-06T05:46:29.693Z,99738.70
2023-04-06T05:49:31.280Z,99741.80
2023-04-06T05:52:32.853Z,99738.09
2023-04-06T05:55:34.343Z,99741.86
2023-04-06T05:58:35.869Z,99740.03
2023-04-06T06:01:37.618Z,99738.70
2023-04-06T06:04:39.245Z,99742.46
2023-04-06T06:07:40.792Z,99739.26
2023-04-06T06:10:42.313Z,99734.67
2023-04-06T06:13:43.932Z,99734.33
2023-04-06T06:16:45.476Z,99733.83
2023-04-06T06:19:47.060Z,99732.29
2023-04-06T06:22:48.692Z,99736.88
2023-04-06T06:25:50.271Z,99735.86
2023-04-06T06:28:51.996Z,99730.77
2023-04-06T06:31:53.537Z,99735.02
2023-04-06T06:34:55.112Z,99730.58
2023-04-06T06:37:56.748Z,99731.41
2023-04-06T06:40:58.857Z,99732.59
2023-04-06T06:44:00.325Z,99728.52
2023-04-06T06:47:01.837Z,99728.49
2023-04-06T06:50:03.703Z,99726.61
2023-04-06T06:53:05.312Z,99726.07
2023-04-06T06:56:07.104Z,99722.48
2023-04-06T06:59:08.628Z,99725.87
2023-04-06T07:02:10.189Z,99726.86
2023-04-06T07:05:24.347Z,99724.95
2023-04-06T07:08:29.525Z,99728.34
2023-04-06T07:11:31.220Z,99722.86
2023-04-06T07:14:32.861Z,99726.05
2023-04-06T07:17:34.516Z,99727.20
2023-04-06T07:20:36.159Z,99722.22
2023-04-06T07:23:38.088Z,99718.27
2023-04-06T07:26:39.710Z,99728.13
2023-04-06T07:29:41.330Z,99727.21
2023-04-06T07:32:43.032Z,99727.30
2023-04-06T07:35:44.788Z,99725.48
2023-04-06T07:38:46.360Z,99722.95
2023-04-06T07:41:48.053Z,99717.20
2023-04-06T07:44:49.555Z,99714.64
2023-04-06T07:47:51.396Z,99707.98
2023-04-06T07:50:53.053Z,99710.77
2023-04-06T07:53:54.601Z,99706.75
2023-04-06T07:56:56.148Z,99695.74
2023-04-06T07:59:57.841Z,99697.46
2023-04-06T08:02:59.530Z,99695.25
2023-04-06T08:06:01.224Z,99693.58
2023-04-06T08:09:03.079Z,99689.80
2023-04-06T08:12:04.799Z,99683.75
2023-04-06T08:15:06.563Z,99688.23
2023-04-06T08:18:09.502Z,99689.92
2023-04-06T08:21:11.113Z,99690.19
2023-04-06T08:24:13.515Z,99686.16
2023-04-06T08:27:15.136Z,99688.94
2023-04-06T08:30:16.823Z,99688.53
2023-04-06T08:33:18.560Z,99685.30
2023-04-06T08:36:19.972Z,99677.30
2023-04-06T08:39:21.478Z,99678.52
2023-04-06T08:42:26.661Z,99683.70
2023-04-06T08:45:28.308Z,99680.54
2023-04-06T08:48:30.242Z,99675.88
2023-04-06T08:51:31.786Z,99678.70
2023-04-06T08:54:33.396Z,99679.17
2023-04-06T08:57:37.123Z,99677.08
2023-04-06T09:00:39.789Z,99676.30
2023-04-06T09:03:42.229Z,99675.95
2023-04-06T09:06:44.440Z,99673.38
2023-04-06T09:09:46.251Z,99676.23
2023-04-06T09:12:47.791Z,99674.70
2023-04-06T09:16:03.020Z,99669.58
2023-04-06T09:19:05.416Z,99666.66
2023-04-06T09:22:07.752Z,99668.30
2023-04-06T09:25:10.270Z,99666.98
2023-04-06T09:28:11.846Z,99665.61
2023-04-06T09:31:21.976Z,99661.40
2023-04-06T09:34:23.720Z,99657.05
2023-04-06T09:37:29.257Z,99656.05
2023-04-06T09:40:31.033Z,99650.77
2023-04-06T09:43:32.955Z,99648.73
2023-04-06T09:46:54.748Z,99645.24
2023-04-06T09:49:59.923Z,99644.67
2023-04-06T09:53:02.173Z,99646.95
2023-04-06T09:56:05.916Z,99649.98
2023-04-06T09:59:11.245Z,99649.46
2023-04-06T10:02:22.700Z,99649.70
2023-04-06T10:05:35.053Z,99653.70
2023-04-06T10:08:39.506Z,99654.95
2023-04-06T10:11:41.824Z,99649.01
2023-04-06T10:14:44.005Z,99650.40
2023-04-06T10:17:46.025Z,99644.02
2023-04-06T10:20:52.588Z,99642.71
2023-04-06T10:24:02.492Z,99640.88
2023-04-06T10:27:05.074Z,99643.48
2023-04-06T10:30:07.813Z,99638.17
2023-04-06T10:33:16.338Z,99634.30
2023-04-06T10:36:26.602Z,99632.23
2023-04-06T10:39:28.136Z,99629.53
2023-04-06T10:42:38.853Z,99627.54
2023-04-06T10:45:41.487Z,99626.83
2023-04-06T10:48:47.153Z,99621.58
2023-04-06T10:51:53.094Z,99617.58
2023-04-06T10:54:54.703Z,99619.02
2023-04-06T10:57:56.307Z,99613.77
2023-04-06T11:00:57.871Z,99608.05
2023-04-06T11:03:59.682Z,99607.81
2023-04-06T11:07:01.551Z,99610.61
2023-04-06T11:13:08.037Z,99614.80
2023-04-06T11:16:14.464Z,99612.95
2023-04-06T11:19:16.128Z,99612.10
2023-04-06T11:22:17.638Z,99612.24
2023-04-06T11:25:19.816Z,99615.96
2023-04-06T11:28:21.487Z,99619.21
2023-04-06T11:31:26.305Z,99619.08
2023-04-06T11:34:30.058Z,99614.14
2023-04-06T11:37:31.747Z,99608.23
2023-04-06T11:40:33.222Z,99609.30
2023-04-06T11:43:34.766Z,99602.56
2023-04-06T11:46:36.392Z,99604.67
2023-04-06T11:49:39.737Z,99604.92
2023-04-06T11:52:42.161Z,99602.41
2023-04-06T11:55:43.904Z,99598.02
2023-04-06T11:58:45.617Z,99589.48
2023-04-06T12:01:47.214Z,99588.45
2023-04-06T12:04:48.887Z,99584.38
2023-04-06T12:07:50.486Z,99585.04
2023-04-06T12:10:52.299Z,99583.52
2023-04-06T12:13:54.392Z,99581.14
2023-04-06T12:16:55.980Z,99576.17
2023-04-06T12:20:05.108Z,99573.76
2023-04-06T12:23:11.424Z,99570.16
2023-04-06T12:26:13.379Z,99562.83
2023-04-06T12:29:15.306Z,99563.36
2023-04-06T12:32:16.854Z,99562.46
2023-04-06T12:35:18.475Z,99560.04
2023-04-06T12:38:20.072Z,99555.94
2023-04-06T12:41:21.666Z,99545.23
2023-04-06T12:44:24.755Z,99537.61
2023-04-06T12:47:27.212Z,99537.48
2023-04-06T12:50:29.075Z,99540.37
2023-04-06T12:53:31.081Z,99541.25
2023-04-06T12:56:32.768Z,99544.51
2023-04-06T12:59:34.456Z,99544.87
2023-04-06T13:02:36.252Z,99538.06
2023-04-06T13:05:45.102Z,99534.30
2023-04-06T13:08:46.653Z,99527.27
2023-04-06T13:11:48.228Z,99519.91
2023-04-06T13:14:49.849Z,99510.50
2023-04-06T13:17:51.532Z,99516.92
2023-04-06T13:20:53.467Z,99517.59
2023-04-06T13:23:55.056Z,99518.33
2023-04-06T13:26:56.706Z,99521.75
2023-04-06T13:29:58.273Z,99521.45
2023-04-06T13:32:59.950Z,99524.69
2023-04-06T13:36:01.609Z,99525.73
2023-04-06T13:39:03.250Z,99525.41
2023-04-06T13:42:04.822Z,99530.36
2023-04-06T13:45:07.585Z,99528.33
2023-04-06T13:48:09.166Z,99530.58
2023-04-06T13:51:12.246Z,99527.84
2023-04-06T13:54:13.785Z,99527.33
2023-04-06T13:57:15.330Z,99528.34
2023-04-06T14:00:17.039Z,99530.39
2023-04-06T14:03:18.609Z,99532.60
2023-04-06T14:06:31.411Z,99534.13
2023-04-06T14:09:34.422Z,99539.73
2023-04-06T14:12:36.044Z,99538.73
2023-04-06T14:15:37.654Z,99538.59
2023-04-06T14:18:39.326Z,99536.92
2023-04-06T14:21:41.015Z,99538.48
2023-04-06T14:24:42.615Z,99541.39
2023-04-06T14:27:44.706Z,99538.17
2023-04-06T14:30:46.407Z,99537.50
2023-04-06T14:33:48.030Z,99540.91
2023-04-06T14:36:49.640Z,99537.52
2023-04-06T14:39:51.377Z,99541.60
2023-04-06T14:42:52.929Z,99540.91
2023-04-06T14:45:54.588Z,99543.63
2023-04-06T14:48:56.692Z,99534.60
2023-04-06T14:51:58.244Z,99533.73
2023-04-06T14:54:59.929Z,99528.61
2023-04-06T14:58:02.158Z,99529.62
2023-04-06T15:01:04.165Z,99530.50
2023-04-06T15:04:06.143Z,99525.56
2023-04-06T15:07:07.771Z,99520.30
2023-04-06T15:10:10.965Z,99522.88
2023-04-06T15:13:13.958Z,99526.98
2023-04-06T15:16:15.625Z,99526.31
2023-04-06T15:19:17.254Z,99524.11
2023-04-06T15:22:18.825Z,99522.73
2023-04-06T15:25:20.437Z,99521.72
2023-04-06T15:28:22.043Z,99520.20
2023-04-06T15:31:35.798Z,99518.68
2023-04-06T15:34:39.714Z,99520.55
2023-04-06T15:37:41.233Z,99521.38
2023-04-06T15:40:47.088Z,99523.44
2023-04-06T15:43:49.648Z,99527.20
2023-04-06T15:46:51.202Z,99522.95
2023-04-06T15:49:52.816Z,99523.48
2023-04-06T15:52:54.513Z,99530.15
2023-04-06T15:56:04.139Z,99530.00
2023-04-06T15:59:05.755Z,99532.06
2023-04-06T16:02:07.505Z,99529.19
2023-04-06T16:05:09.626Z,99528.69
2023-04-06T16:08:11.283Z,99527.52
2023-04-06T16:11:12.930Z,99531.96
2023-04-06T16:14:14.571Z,99530.10
2023-04-06T16:17:16.123Z,99526.88
2023-04-06T16:20:17.810Z,99526.02
2023-04-06T16:23:19.473Z,99521.95
2023-04-06T16:26:21.900Z,99524.69
2023-04-06T16:29:23.710Z,99522.64
2023-04-06T16:32:25.242Z,99524.17
2023-04-06T16:35:26.774Z,99523.48
2023-04-06T16:38:28.323Z,99523.52
2023-04-06T16:41:29.839Z,99522.18
2023-04-06T16:44:31.463Z,99519.31
2023-04-06T16:47:33.220Z,99522.20
2023-04-06T16:50:35.744Z,99519.50
2023-04-06T16:53:38.453Z,99521.55
2023-04-06T16:56:40.065Z,99515.80
2023-04-06T16:59:41.633Z,99511.41
2023-04-06T17:02:47.244Z,99508.02
2023-04-06T17:05:49.180Z,99504.77
2023-04-06T17:08:50.816Z,99508.40
2023-04-06T17:11:53.419Z,99507.19
2023-04-06T17:14:55.275Z,99513.70
2023-04-06T17:17:56.844Z,99514.21
2023-04-06T17:20:59.119Z,99517.44
2023-04-06T17:24:00.681Z,99513.02
2023-04-06T17:27:02.373Z,99512.16
2023-04-06T17:30:04.515Z,99512.02
2023-04-06T17:33:06.281Z,99513.05
2023-04-06T17:36:08.341Z,99507.30
2023-04-06T17:39:09.958Z,99509.19
2023-04-06T17:42:11.530Z,99510.05
2023-04-06T17:45:13.580Z,99510.66
2023-04-06T17:48:15.155Z,99511.44
2023-04-06T17:51:16.850Z,99505.19
2023-04-06T17:54:18.390Z,99505.89
2023-04-06T17:57:20.742Z,99508.45
2023-04-06T18:00:22.704Z,99512.36
2023-04-06T18:03:24.327Z,99512.52
2023-04-06T18:06:26.044Z,99513.23
2023-04-06T18:09:30.247Z,99511.55
2023-04-06T18:12:32.774Z,99507.48
2023-04-06T18:15:35.502Z,99508.36
2023-04-06T18:18:37.233Z,99506.27
2023-04-06T18:21:39.089Z,99509.89
2023-04-06T18:24:43.002Z,99504.96
2023-04-06T18:27:45.094Z,99506.35
2023-04-06T18:30:47.088Z,99507.06
2023-04-06T18:33:49.184Z,99505.36
2023-04-06T18:36:51.371Z,99507.41
2023-04-06T18:39:53.925Z,99507.74
2023-04-06T18:42:55.532Z,99505.50
2023-04-06T18:45:57.380Z,99504.33
2023-04-06T18:48:58.978Z,99500.10
2023-04-06T18:52:00.745Z,99499.63
2023-04-06T18:55:02.339Z,99500.34
2023-04-06T18:58:04.079Z,99497.63
2023-04-06T19:01:06.059Z,99496.86
2023-04-06T19:04:08.090Z,99496.44
2023-04-06T19:07:10.013Z,99496.84
2023-04-06T19:10:11.819Z,99493.98
2023-04-06T19:13:13.473Z,99493.48
2023-04-06T19:16:15.880Z,99492.98
2023-04-06T19:19:18.941Z,99490.27
2023-04-06T19:22:20.644Z,99485.70
2023-04-06T19:25:22.653Z,99480.46
2023-04-06T19:28:24.505Z,99477.77
2023-04-06T19:31:26.178Z,99475.73
2023-04-06T19:34:28.258Z,99475.84
2023-04-06T19:37:29.918Z,99476.59
2023-04-06T19:40:31.547Z,99476.61
2023-04-06T19:43:52.014Z,99472.05
2023-04-06T19:46:53.611Z,99469.01
2023-04-06T19:49:55.317Z,99467.32
2023-04-06T19:52:57.006Z,99466.64
2023-04-06T19:55:58.748Z,99467.52
2023-04-06T19:59:00.372Z,99468.55
2023-04-06T20:02:02.196Z,99467.38
2023-04-06T20:05:04.127Z,99468.27
2023-04-06T20:08:05.694Z,99466.05
2023-04-06T20:11:07.280Z,99461.74
2023-04-06T20:14:08.955Z,99458.33
2023-04-06T20:17:10.532Z,99464.61
2023-04-06T20:20:12.193Z,99465.79
2023-04-06T20:23:13.944Z,99463.73
2023-04-06T20:26:15.428Z,99467.81
2023-04-06T20:29:17.131Z,99460.83
2023-04-06T20:32:18.888Z,99462.71
2023-04-06T20:35:20.637Z,99461.51
2023-04-06T20:38:32.300Z,99460.66
2023-04-06T20:41:35.007Z,99459.80
2023-04-06T20:44:36.567Z,99457.94
2023-04-06T20:47:38.436Z,99454.00
2023-04-06T20:50:40.003Z,99454.17
2023-04-06T20:53:41.557Z,99456.55
2023-04-06T20:56:43.423Z,99456.20
2023-04-06T20:59:44.935Z,99450.60
2023-04-06T21:02:46.804Z,99449.58
2023-04-06T21:05:52.957Z,99440.92
2023-04-06T21:08:54.584Z,99439.73
2023-04-06T21:11:56.126Z,99438.54
2023-04-06T21:14:57.717Z,99437.34
2023-04-06T21:17:59.417Z,99434.30
2023-04-06T21:21:01.019Z,99430.21
2023-04-06T21:24:02.778Z,99426.47
2023-04-06T21:27:04.324Z,99425.27
2023-04-06T21:30:06.543Z,99425.10
2023-04-06T21:33:08.180Z,99427.48
2023-04-06T21:36:09.923Z,99427.99
2023-04-06T21:39:11.473Z,99424.76
2023-04-06T21:42:13.098Z,99427.32
2023-04-06T21:45:14.821Z,99421.70
2023-04-06T21:48:16.794Z,99418.13
2023-04-06T21:51:19.559Z,99416.08
2023-04-06T21:54:21.346Z,99414.05
2023-04-06T21:57:23.847Z,99412.17
2023-04-06T22:00:25.501Z,99404.84
2023-04-06T22:03:27.858Z,99400.09
2023-04-06T22:06:29.769Z,99401.61
2023-04-06T22:09:31.881Z,99404.67
2023-04-06T22:12:33.532Z,99401.95
2023-04-06T22:15:35.129Z,99395.14
2023-04-06T22:18:38.854Z,99389.02
2023-04-06T22:21:40.821Z,99386.47
2023-04-06T22:24:42.391Z,99381.20
2023-04-06T22:27:43.973Z,99378.81
2023-04-06T22:30:45.595Z,99387.30
2023-04-06T22:33:47.111Z,99379.48
2023-04-06T22:36:48.882Z,99373.02
2023-04-06T22:39:50.406Z,99367.73
2023-04-06T22:42:51.983Z,99364.68
2023-04-06T22:45:53.654Z,99356.36
2023-04-06T22:48:55.208Z,99365.04
2023-04-06T22:51:56.813Z,99363.31
2023-04-06T22:54:58.373Z,99364.68
2023-04-06T22:57:59.985Z,99365.36
2023-04-06T23:01:01.596Z,99366.89
2023-04-06T23:04:03.331Z,99361.62
2023-04-06T23:07:05.003Z,99363.98
2023-04-06T23:10:06.988Z,99360.25
2023-04-06T23:13:09.750Z,99354.98
2023-04-06T23:16:11.298Z,99348.16
2023-04-06T23:19:13.168Z,99337.27
2023-04-06T23:22:14.641Z,99342.03
2023-04-06T23:25:16.385Z,99346.45
2023-04-06T23:28:18.061Z,99343.90
2023-04-06T23:31:19.644Z,99344.92
2023-04-06T23:34:21.327Z,99335.06
2023-04-06T23:37:22.858Z,99331.48
2023-04-06T23:40:24.450Z,99332.15
2023-04-06T23:43:25.987Z,99324.67
2023-04-06T23:46:27.583Z,99322.29
2023-04-06T23:49:29.236Z,99320.58
2023-04-06T23:52:30.772Z,99315.65
2023-04-06T23:55:32.480Z,99314.62
2023-04-06T23:58:34.035Z,99313.77
